Kezdőlap
METAR-TAF:

METAR-TAF

Repülőterek :

Manhattan, Kansas, Amerikai Egyesült Államok

földrajzi szélesség: 39-08-07N, földrajzi hosszúság: 096-40-40W, magasság: 321 m

Jelenlegi meteorológiai megfigyelések

A jelentés 58 perccel ezelõtt készült, 11:52 UTC
Szélcsend
Hőmérséklet 23°C
Páratartalom 94%
Légköri nyomás 1018 hPa
Látótávolság: 8.0 km
Derült ég
Párásság

METAR: KMHK 281152Z 00000KT 5SM BR CLR 23/22 A3007 RMK AO2 SLP170 T02280217 10272 20228 53003

Idő: 07:50 (12:50 UTC)

Előrejelzés

A jelentés 1 órával és 30 perccel ezelõtt készült, 11:20 UTC
Az előrejelzés 28-én 12 óra UTC és 29-én 12 óra UTC között érvényes
Különbözõ irányokból fújó szél 2 kt
Látótávolság: 10 km
Derült ég
28-én 1500 órától UTC szerint
Déli szél 10 kt
Látótávolság: 10 km
Kevés felhő 5000 lábon

TAF: KMHK 281120Z 2812/2912 VRB02KT P6SM SKC FM281500 19010KT P6SM FEW050

Meteorológiai megfigyelések és előrejelzések több, mint 4000 repülőtéren (METAR és TAF jelentéseket).

A térképen piros és sárga pontok jelzik az elérhető meteorológiai állomásokat.

Mozgassa az egeret a pont fölött, hogy megjelenjen az állomás neve.

Azután kattintson az időjárási megfigyelések és előrejelzések megtekintéséhez.

A térkép megváltoztatása: kattintson a fekete keresztel jelölt zöld gombra ráközelítéshez, a vonallal jelölt zöld gombra távolításhoz, vagy a zöld nyilakra a szomszédos térképek eléréséhez.


METAR-TAF: